sensor_id;sensor_type;location;lat;lon;timestamp;P1;durP1;ratioP1;P2;durP2;ratioP2
61435;SDS011;47304;47.456;19.160;2024-02-14T00:00:05;9.30;;;4.60;;
61435;SDS011;47304;47.456;19.160;2024-02-14T00:02:34;10.00;;;4.70;;
61435;SDS011;47304;47.456;19.160;2024-02-14T00:05:03;9.30;;;4.60;;
61435;SDS011;47304;47.456;19.160;2024-02-14T00:07:32;10.50;;;5.10;;
61435;SDS011;47304;47.456;19.160;2024-02-14T00:10:00;9.20;;;5.10;;
61435;SDS011;47304;47.456;19.160;2024-02-14T00:12:29;10.80;;;4.80;;
61435;SDS011;47304;47.456;19.160;2024-02-14T00:14:57;9.10;;;4.50;;
61435;SDS011;47304;47.456;19.160;2024-02-14T00:17:25;9.30;;;4.00;;
61435;SDS011;47304;47.456;19.160;2024-02-14T00:19:53;9.00;;;4.20;;
61435;SDS011;47304;47.456;19.160;2024-02-14T00:22:21;10.80;;;4.50;;
61435;SDS011;47304;47.456;19.160;2024-02-14T00:24:50;9.70;;;4.40;;
61435;SDS011;47304;47.456;19.160;2024-02-14T00:27:18;9.10;;;3.90;;
61435;SDS011;47304;47.456;19.160;2024-02-14T00:29:46;8.40;;;3.90;;
61435;SDS011;47304;47.456;19.160;2024-02-14T00:32:14;7.20;;;3.80;;
61435;SDS011;47304;47.456;19.160;2024-02-14T00:34:43;10.00;;;4.10;;
61435;SDS011;47304;47.456;19.160;2024-02-14T00:37:11;10.20;;;4.10;;
61435;SDS011;47304;47.456;19.160;2024-02-14T00:39:39;9.60;;;4.40;;
61435;SDS011;47304;47.456;19.160;2024-02-14T00:42:07;10.90;;;4.70;;
61435;SDS011;47304;47.456;19.160;2024-02-14T00:44:35;9.40;;;4.50;;
61435;SDS011;47304;47.456;19.160;2024-02-14T00:47:04;10.30;;;4.30;;
61435;SDS011;47304;47.456;19.160;2024-02-14T00:49:35;9.30;;;3.90;;
61435;SDS011;47304;47.456;19.160;2024-02-14T00:52:03;8.50;;;4.30;;
61435;SDS011;47304;47.456;19.160;2024-02-14T00:54:31;8.30;;;3.70;;
61435;SDS011;47304;47.456;19.160;2024-02-14T00:57:00;8.10;;;3.60;;
61435;SDS011;47304;47.456;19.160;2024-02-14T00:59:28;8.80;;;3.70;;
61435;SDS011;47304;47.456;19.160;2024-02-14T01:01:57;7.80;;;3.20;;
61435;SDS011;47304;47.456;19.160;2024-02-14T01:04:25;6.90;;;3.40;;
61435;SDS011;47304;47.456;19.160;2024-02-14T01:06:53;7.70;;;3.40;;
61435;SDS011;47304;47.456;19.160;2024-02-14T01:09:21;8.10;;;3.30;;
61435;SDS011;47304;47.456;19.160;2024-02-14T01:11:50;7.70;;;3.60;;
61435;SDS011;47304;47.456;19.160;2024-02-14T01:14:18;9.30;;;3.80;;
61435;SDS011;47304;47.456;19.160;2024-02-14T01:16:46;7.10;;;3.40;;
61435;SDS011;47304;47.456;19.160;2024-02-14T01:19:14;7.60;;;3.60;;
61435;SDS011;47304;47.456;19.160;2024-02-14T01:21:43;8.20;;;3.60;;
61435;SDS011;47304;47.456;19.160;2024-02-14T01:24:11;7.60;;;3.60;;
61435;SDS011;47304;47.456;19.160;2024-02-14T01:26:40;8.50;;;3.70;;
61435;SDS011;47304;47.456;19.160;2024-02-14T01:29:08;9.10;;;4.00;;
61435;SDS011;47304;47.456;19.160;2024-02-14T01:31:36;9.50;;;4.00;;
61435;SDS011;47304;47.456;19.160;2024-02-14T01:34:04;9.40;;;4.00;;
61435;SDS011;47304;47.456;19.160;2024-02-14T01:36:32;8.80;;;3.70;;
61435;SDS011;47304;47.456;19.160;2024-02-14T01:39:01;7.30;;;3.40;;
61435;SDS011;47304;47.456;19.160;2024-02-14T01:41:29;10.30;;;4.20;;
61435;SDS011;47304;47.456;19.160;2024-02-14T01:43:57;8.70;;;4.20;;
61435;SDS011;47304;47.456;19.160;2024-02-14T01:46:25;7.80;;;4.10;;
61435;SDS011;47304;47.456;19.160;2024-02-14T01:48:53;8.30;;;4.10;;
61435;SDS011;47304;47.456;19.160;2024-02-14T01:51:22;9.50;;;3.90;;
61435;SDS011;47304;47.456;19.160;2024-02-14T01:53:51;9.40;;;4.20;;
61435;SDS011;47304;47.456;19.160;2024-02-14T01:56:21;7.60;;;3.80;;
61435;SDS011;47304;47.456;19.160;2024-02-14T01:58:49;9.20;;;4.10;;
61435;SDS011;47304;47.456;19.160;2024-02-14T02:01:19;9.20;;;4.20;;
61435;SDS011;47304;47.456;19.160;2024-02-14T02:03:47;8.30;;;3.80;;
61435;SDS011;47304;47.456;19.160;2024-02-14T02:06:15;8.30;;;4.00;;
61435;SDS011;47304;47.456;19.160;2024-02-14T02:08:44;8.90;;;4.10;;
61435;SDS011;47304;47.456;19.160;2024-02-14T02:11:13;9.00;;;4.10;;
61435;SDS011;47304;47.456;19.160;2024-02-14T02:13:42;9.70;;;4.10;;
61435;SDS011;47304;47.456;19.160;2024-02-14T02:16:10;8.60;;;3.70;;
61435;SDS011;47304;47.456;19.160;2024-02-14T02:18:38;9.20;;;4.30;;
61435;SDS011;47304;47.456;19.160;2024-02-14T02:21:06;8.80;;;4.10;;
61435;SDS011;47304;47.456;19.160;2024-02-14T02:23:34;9.00;;;4.30;;
61435;SDS011;47304;47.456;19.160;2024-02-14T02:26:02;10.60;;;3.90;;
61435;SDS011;47304;47.456;19.160;2024-02-14T02:28:31;8.70;;;3.90;;
61435;SDS011;47304;47.456;19.160;2024-02-14T02:30:59;7.40;;;3.90;;
61435;SDS011;47304;47.456;19.160;2024-02-14T02:33:28;10.80;;;4.20;;
61435;SDS011;47304;47.456;19.160;2024-02-14T02:35:56;9.70;;;4.30;;
61435;SDS011;47304;47.456;19.160;2024-02-14T02:38:24;9.10;;;4.00;;
61435;SDS011;47304;47.456;19.160;2024-02-14T02:40:52;9.20;;;4.70;;
61435;SDS011;47304;47.456;19.160;2024-02-14T02:43:20;9.40;;;4.20;;
61435;SDS011;47304;47.456;19.160;2024-02-14T02:45:48;8.80;;;4.10;;
61435;SDS011;47304;47.456;19.160;2024-02-14T02:48:16;8.00;;;3.90;;
61435;SDS011;47304;47.456;19.160;2024-02-14T02:50:44;8.80;;;4.30;;
61435;SDS011;47304;47.456;19.160;2024-02-14T02:53:13;11.20;;;4.30;;
61435;SDS011;47304;47.456;19.160;2024-02-14T02:55:41;10.30;;;4.90;;
61435;SDS011;47304;47.456;19.160;2024-02-14T02:58:10;8.50;;;4.30;;
61435;SDS011;47304;47.456;19.160;2024-02-14T03:00:38;12.00;;;4.90;;
61435;SDS011;47304;47.456;19.160;2024-02-14T03:03:08;9.80;;;4.60;;
61435;SDS011;47304;47.456;19.160;2024-02-14T03:05:37;10.00;;;4.30;;
61435;SDS011;47304;47.456;19.160;2024-02-14T03:08:05;10.70;;;4.80;;
61435;SDS011;47304;47.456;19.160;2024-02-14T03:10:34;9.20;;;4.40;;
61435;SDS011;47304;47.456;19.160;2024-02-14T03:13:02;10.50;;;4.60;;
61435;SDS011;47304;47.456;19.160;2024-02-14T03:15:31;10.50;;;4.90;;
61435;SDS011;47304;47.456;19.160;2024-02-14T03:17:59;11.30;;;4.60;;
61435;SDS011;47304;47.456;19.160;2024-02-14T03:20:27;11.00;;;5.20;;
61435;SDS011;47304;47.456;19.160;2024-02-14T03:22:56;11.30;;;5.20;;
61435;SDS011;47304;47.456;19.160;2024-02-14T03:25:24;13.80;;;4.80;;
61435;SDS011;47304;47.456;19.160;2024-02-14T03:27:53;10.90;;;4.50;;
61435;SDS011;47304;47.456;19.160;2024-02-14T03:30:21;10.50;;;4.80;;
61435;SDS011;47304;47.456;19.160;2024-02-14T03:32:50;9.60;;;4.70;;
61435;SDS011;47304;47.456;19.160;2024-02-14T03:35:18;11.90;;;5.40;;
61435;SDS011;47304;47.456;19.160;2024-02-14T03:37:46;12.10;;;6.10;;
61435;SDS011;47304;47.456;19.160;2024-02-14T03:40:15;11.10;;;5.20;;
61435;SDS011;47304;47.456;19.160;2024-02-14T03:42:43;11.70;;;5.60;;
61435;SDS011;47304;47.456;19.160;2024-02-14T03:45:12;12.10;;;5.40;;
61435;SDS011;47304;47.456;19.160;2024-02-14T03:47:40;12.60;;;5.70;;
61435;SDS011;47304;47.456;19.160;2024-02-14T03:50:09;11.80;;;5.60;;
61435;SDS011;47304;47.456;19.160;2024-02-14T03:52:37;13.00;;;6.20;;
61435;SDS011;47304;47.456;19.160;2024-02-14T03:55:06;12.70;;;5.90;;
61435;SDS011;47304;47.456;19.160;2024-02-14T03:57:35;12.50;;;5.70;;
61435;SDS011;47304;47.456;19.160;2024-02-14T04:00:03;11.90;;;5.60;;
61435;SDS011;47304;47.456;19.160;2024-02-14T04:02:33;11.60;;;5.50;;
61435;SDS011;47304;47.456;19.160;2024-02-14T04:05:01;14.90;;;5.90;;
61435;SDS011;47304;47.456;19.160;2024-02-14T04:07:29;12.00;;;5.80;;
61435;SDS011;47304;47.456;19.160;2024-02-14T04:09:58;10.70;;;5.30;;
61435;SDS011;47304;47.456;19.160;2024-02-14T04:12:26;11.20;;;5.20;;
61435;SDS011;47304;47.456;19.160;2024-02-14T04:14:54;11.80;;;5.20;;
61435;SDS011;47304;47.456;19.160;2024-02-14T04:17:22;11.30;;;5.00;;
61435;SDS011;47304;47.456;19.160;2024-02-14T04:19:50;12.70;;;5.00;;
61435;SDS011;47304;47.456;19.160;2024-02-14T04:22:19;11.90;;;5.40;;
61435;SDS011;47304;47.456;19.160;2024-02-14T04:24:47;11.10;;;5.20;;
61435;SDS011;47304;47.456;19.160;2024-02-14T04:27:15;12.70;;;5.50;;
61435;SDS011;47304;47.456;19.160;2024-02-14T04:29:46;12.00;;;5.30;;
61435;SDS011;47304;47.456;19.160;2024-02-14T04:32:14;11.30;;;5.90;;
61435;SDS011;47304;47.456;19.160;2024-02-14T04:34:43;11.60;;;5.60;;
61435;SDS011;47304;47.456;19.160;2024-02-14T04:37:11;11.70;;;5.70;;
61435;SDS011;47304;47.456;19.160;2024-02-14T04:39:39;12.10;;;5.60;;
61435;SDS011;47304;47.456;19.160;2024-02-14T04:42:08;10.00;;;5.20;;
61435;SDS011;47304;47.456;19.160;2024-02-14T04:44:36;11.50;;;5.50;;
61435;SDS011;47304;47.456;19.160;2024-02-14T04:47:04;14.30;;;6.20;;
61435;SDS011;47304;47.456;19.160;2024-02-14T04:49:33;13.60;;;5.60;;
61435;SDS011;47304;47.456;19.160;2024-02-14T04:52:01;12.50;;;6.00;;
61435;SDS011;47304;47.456;19.160;2024-02-14T04:54:29;11.20;;;5.80;;
61435;SDS011;47304;47.456;19.160;2024-02-14T04:56:57;13.00;;;6.10;;
61435;SDS011;47304;47.456;19.160;2024-02-14T04:59:26;11.60;;;5.60;;
61435;SDS011;47304;47.456;19.160;2024-02-14T05:01:54;13.80;;;5.80;;
61435;SDS011;47304;47.456;19.160;2024-02-14T05:04:22;13.20;;;5.80;;
61435;SDS011;47304;47.456;19.160;2024-02-14T05:06:50;13.20;;;7.30;;
61435;SDS011;47304;47.456;19.160;2024-02-14T05:09:19;13.30;;;6.40;;
61435;SDS011;47304;47.456;19.160;2024-02-14T05:11:47;13.50;;;6.50;;
61435;SDS011;47304;47.456;19.160;2024-02-14T05:14:15;14.30;;;6.50;;
61435;SDS011;47304;47.456;19.160;2024-02-14T05:16:43;13.30;;;6.10;;
61435;SDS011;47304;47.456;19.160;2024-02-14T05:19:12;12.60;;;6.70;;
61435;SDS011;47304;47.456;19.160;2024-02-14T05:21:40;15.20;;;6.80;;
61435;SDS011;47304;47.456;19.160;2024-02-14T05:24:08;14.30;;;6.80;;
61435;SDS011;47304;47.456;19.160;2024-02-14T05:26:36;13.90;;;6.20;;
61435;SDS011;47304;47.456;19.160;2024-02-14T05:29:05;11.60;;;6.20;;
61435;SDS011;47304;47.456;19.160;2024-02-14T05:31:43;14.20;;;6.50;;
61435;SDS011;47304;47.456;19.160;2024-02-14T05:34:13;14.50;;;7.00;;
61435;SDS011;47304;47.456;19.160;2024-02-14T05:36:41;12.80;;;6.70;;
61435;SDS011;47304;47.456;19.160;2024-02-14T05:39:09;15.60;;;6.70;;
61435;SDS011;47304;47.456;19.160;2024-02-14T05:41:39;13.70;;;7.10;;
61435;SDS011;47304;47.456;19.160;2024-02-14T05:44:07;12.80;;;6.30;;
61435;SDS011;47304;47.456;19.160;2024-02-14T05:46:35;15.30;;;7.10;;
61435;SDS011;47304;47.456;19.160;2024-02-14T05:49:03;14.10;;;7.40;;
61435;SDS011;47304;47.456;19.160;2024-02-14T05:51:32;18.00;;;7.50;;
61435;SDS011;47304;47.456;19.160;2024-02-14T05:54:00;15.80;;;7.30;;
61435;SDS011;47304;47.456;19.160;2024-02-14T05:56:28;15.30;;;6.80;;
61435;SDS011;47304;47.456;19.160;2024-02-14T05:58:56;15.60;;;8.20;;
61435;SDS011;47304;47.456;19.160;2024-02-14T06:01:25;14.80;;;6.80;;
61435;SDS011;47304;47.456;19.160;2024-02-14T06:03:53;14.90;;;7.20;;
61435;SDS011;47304;47.456;19.160;2024-02-14T06:06:22;15.40;;;7.70;;
61435;SDS011;47304;47.456;19.160;2024-02-14T06:08:50;14.30;;;7.50;;
61435;SDS011;47304;47.456;19.160;2024-02-14T06:11:18;14.40;;;7.30;;
61435;SDS011;47304;47.456;19.160;2024-02-14T06:13:46;13.60;;;6.90;;
61435;SDS011;47304;47.456;19.160;2024-02-14T06:16:14;16.80;;;7.80;;
61435;SDS011;47304;47.456;19.160;2024-02-14T06:18:43;13.20;;;7.00;;
61435;SDS011;47304;47.456;19.160;2024-02-14T06:21:11;14.80;;;7.40;;
61435;SDS011;47304;47.456;19.160;2024-02-14T06:23:39;14.10;;;7.10;;
61435;SDS011;47304;47.456;19.160;2024-02-14T06:26:08;14.00;;;7.10;;
61435;SDS011;47304;47.456;19.160;2024-02-14T06:28:36;15.90;;;7.50;;
61435;SDS011;47304;47.456;19.160;2024-02-14T06:31:05;15.30;;;7.20;;
61435;SDS011;47304;47.456;19.160;2024-02-14T06:33:33;15.50;;;7.60;;
61435;SDS011;47304;47.456;19.160;2024-02-14T06:36:01;18.30;;;7.70;;
61435;SDS011;47304;47.456;19.160;2024-02-14T06:38:30;16.10;;;7.90;;
61435;SDS011;47304;47.456;19.160;2024-02-14T06:40:59;12.60;;;7.50;;
61435;SDS011;47304;47.456;19.160;2024-02-14T06:43:27;15.20;;;7.50;;
61435;SDS011;47304;47.456;19.160;2024-02-14T06:45:56;15.60;;;7.70;;
61435;SDS011;47304;47.456;19.160;2024-02-14T06:48:24;15.90;;;7.50;;
61435;SDS011;47304;47.456;19.160;2024-02-14T06:50:53;13.20;;;7.50;;
61435;SDS011;47304;47.456;19.160;2024-02-14T06:53:21;16.30;;;7.90;;
61435;SDS011;47304;47.456;19.160;2024-02-14T06:55:49;15.30;;;8.40;;
61435;SDS011;47304;47.456;19.160;2024-02-14T06:58:17;20.00;;;9.40;;
61435;SDS011;47304;47.456;19.160;2024-02-14T07:00:46;16.30;;;9.00;;
61435;SDS011;47304;47.456;19.160;2024-02-14T07:03:15;15.30;;;9.40;;
61435;SDS011;47304;47.456;19.160;2024-02-14T07:05:43;19.10;;;9.50;;
61435;SDS011;47304;47.456;19.160;2024-02-14T07:08:11;19.60;;;10.20;;
61435;SDS011;47304;47.456;19.160;2024-02-14T07:10:40;19.80;;;9.80;;
61435;SDS011;47304;47.456;19.160;2024-02-14T07:13:08;19.30;;;10.60;;
61435;SDS011;47304;47.456;19.160;2024-02-14T07:15:36;20.50;;;9.90;;
61435;SDS011;47304;47.456;19.160;2024-02-14T07:18:05;17.50;;;8.20;;
61435;SDS011;47304;47.456;19.160;2024-02-14T07:20:33;15.20;;;8.90;;
61435;SDS011;47304;47.456;19.160;2024-02-14T07:23:01;16.70;;;8.30;;
61435;SDS011;47304;47.456;19.160;2024-02-14T07:25:30;18.20;;;9.30;;
61435;SDS011;47304;47.456;19.160;2024-02-14T07:27:58;23.60;;;11.10;;
61435;SDS011;47304;47.456;19.160;2024-02-14T07:30:26;19.90;;;9.70;;
61435;SDS011;47304;47.456;19.160;2024-02-14T07:32:54;16.70;;;10.00;;
61435;SDS011;47304;47.456;19.160;2024-02-14T07:35:22;18.70;;;9.40;;
61435;SDS011;47304;47.456;19.160;2024-02-14T07:37:50;20.20;;;10.20;;
61435;SDS011;47304;47.456;19.160;2024-02-14T07:40:19;20.80;;;11.40;;
61435;SDS011;47304;47.456;19.160;2024-02-14T07:42:47;20.80;;;11.20;;
61435;SDS011;47304;47.456;19.160;2024-02-14T07:45:15;21.80;;;11.20;;
61435;SDS011;47304;47.456;19.160;2024-02-14T07:47:44;20.20;;;11.20;;
61435;SDS011;47304;47.456;19.160;2024-02-14T07:50:12;21.40;;;9.90;;
61435;SDS011;47304;47.456;19.160;2024-02-14T07:52:42;16.60;;;9.60;;
61435;SDS011;47304;47.456;19.160;2024-02-14T07:55:11;17.00;;;8.90;;
61435;SDS011;47304;47.456;19.160;2024-02-14T07:57:41;16.90;;;9.50;;
61435;SDS011;47304;47.456;19.160;2024-02-14T08:00:10;16.40;;;8.10;;
61435;SDS011;47304;47.456;19.160;2024-02-14T08:02:39;15.90;;;8.70;;
61435;SDS011;47304;47.456;19.160;2024-02-14T08:05:07;19.80;;;9.30;;
61435;SDS011;47304;47.456;19.160;2024-02-14T08:07:36;18.00;;;9.60;;
61435;SDS011;47304;47.456;19.160;2024-02-14T08:10:05;16.00;;;8.50;;
61435;SDS011;47304;47.456;19.160;2024-02-14T08:12:34;17.90;;;8.80;;
61435;SDS011;47304;47.456;19.160;2024-02-14T08:15:02;16.90;;;8.80;;
61435;SDS011;47304;47.456;19.160;2024-02-14T08:17:31;17.00;;;8.40;;
61435;SDS011;47304;47.456;19.160;2024-02-14T08:20:00;14.60;;;7.70;;
61435;SDS011;47304;47.456;19.160;2024-02-14T08:22:28;15.40;;;7.40;;
61435;SDS011;47304;47.456;19.160;2024-02-14T08:24:56;15.90;;;7.20;;
61435;SDS011;47304;47.456;19.160;2024-02-14T08:27:24;13.50;;;6.90;;
61435;SDS011;47304;47.456;19.160;2024-02-14T08:29:52;13.40;;;7.30;;
61435;SDS011;47304;47.456;19.160;2024-02-14T08:32:21;13.80;;;6.50;;
61435;SDS011;47304;47.456;19.160;2024-02-14T08:34:49;11.70;;;6.20;;
61435;SDS011;47304;47.456;19.160;2024-02-14T08:37:17;13.10;;;5.60;;
61435;SDS011;47304;47.456;19.160;2024-02-14T08:39:46;14.20;;;6.50;;
61435;SDS011;47304;47.456;19.160;2024-02-14T08:42:14;11.00;;;5.50;;
61435;SDS011;47304;47.456;19.160;2024-02-14T08:44:42;12.70;;;6.20;;
61435;SDS011;47304;47.456;19.160;2024-02-14T08:47:10;15.20;;;6.70;;
61435;SDS011;47304;47.456;19.160;2024-02-14T08:49:40;12.30;;;6.00;;
61435;SDS011;47304;47.456;19.160;2024-02-14T08:52:08;12.30;;;6.10;;
61435;SDS011;47304;47.456;19.160;2024-02-14T08:54:36;11.80;;;6.20;;
61435;SDS011;47304;47.456;19.160;2024-02-14T08:57:04;15.00;;;6.10;;
61435;SDS011;47304;47.456;19.160;2024-02-14T08:59:32;11.80;;;6.10;;
61435;SDS011;47304;47.456;19.160;2024-02-14T09:02:00;10.70;;;5.90;;
61435;SDS011;47304;47.456;19.160;2024-02-14T09:04:30;12.20;;;6.30;;
61435;SDS011;47304;47.456;19.160;2024-02-14T09:06:58;11.40;;;6.20;;
61435;SDS011;47304;47.456;19.160;2024-02-14T09:09:27;14.20;;;7.20;;
61435;SDS011;47304;47.456;19.160;2024-02-14T09:11:55;11.40;;;6.50;;
61435;SDS011;47304;47.456;19.160;2024-02-14T09:14:23;13.40;;;6.50;;
61435;SDS011;47304;47.456;19.160;2024-02-14T09:16:51;12.90;;;6.90;;
61435;SDS011;47304;47.456;19.160;2024-02-14T09:19:19;13.10;;;6.80;;
61435;SDS011;47304;47.456;19.160;2024-02-14T09:21:48;12.10;;;6.10;;
61435;SDS011;47304;47.456;19.160;2024-02-14T09:24:16;11.30;;;5.70;;
61435;SDS011;47304;47.456;19.160;2024-02-14T09:26:44;11.40;;;5.70;;
61435;SDS011;47304;47.456;19.160;2024-02-14T09:29:12;10.80;;;5.50;;
61435;SDS011;47304;47.456;19.160;2024-02-14T09:31:40;11.80;;;5.70;;
61435;SDS011;47304;47.456;19.160;2024-02-14T09:34:09;11.30;;;5.10;;
61435;SDS011;47304;47.456;19.160;2024-02-14T09:36:37;9.60;;;4.90;;
61435;SDS011;47304;47.456;19.160;2024-02-14T09:39:05;9.50;;;5.30;;
61435;SDS011;47304;47.456;19.160;2024-02-14T09:41:36;9.80;;;6.40;;
61435;SDS011;47304;47.456;19.160;2024-02-14T09:44:06;8.70;;;4.80;;
61435;SDS011;47304;47.456;19.160;2024-02-14T09:46:34;8.20;;;3.80;;
61435;SDS011;47304;47.456;19.160;2024-02-14T09:49:04;9.70;;;4.60;;
61435;SDS011;47304;47.456;19.160;2024-02-14T09:51:34;8.30;;;4.50;;
61435;SDS011;47304;47.456;19.160;2024-02-14T09:54:03;9.30;;;5.30;;
61435;SDS011;47304;47.456;19.160;2024-02-14T09:56:32;9.80;;;5.50;;
61435;SDS011;47304;47.456;19.160;2024-02-14T09:59:01;9.90;;;5.60;;
61435;SDS011;47304;47.456;19.160;2024-02-14T10:01:31;8.70;;;5.20;;
61435;SDS011;47304;47.456;19.160;2024-02-14T10:03:59;9.60;;;4.80;;
61435;SDS011;47304;47.456;19.160;2024-02-14T10:06:27;9.40;;;5.50;;
61435;SDS011;47304;47.456;19.160;2024-02-14T10:08:56;10.00;;;5.50;;
61435;SDS011;47304;47.456;19.160;2024-02-14T10:11:24;9.60;;;5.30;;
61435;SDS011;47304;47.456;19.160;2024-02-14T10:13:52;9.90;;;5.20;;
61435;SDS011;47304;47.456;19.160;2024-02-14T10:16:21;8.60;;;5.20;;
61435;SDS011;47304;47.456;19.160;2024-02-14T10:18:49;8.60;;;5.30;;
61435;SDS011;47304;47.456;19.160;2024-02-14T10:21:17;10.60;;;5.40;;
61435;SDS011;47304;47.456;19.160;2024-02-14T10:23:46;9.50;;;5.50;;
61435;SDS011;47304;47.456;19.160;2024-02-14T10:26:16;8.20;;;4.60;;
61435;SDS011;47304;47.456;19.160;2024-02-14T10:28:45;10.70;;;4.70;;
61435;SDS011;47304;47.456;19.160;2024-02-14T10:31:13;8.50;;;4.80;;
61435;SDS011;47304;47.456;19.160;2024-02-14T10:33:42;8.20;;;4.80;;
61435;SDS011;47304;47.456;19.160;2024-02-14T10:36:11;8.10;;;4.50;;
61435;SDS011;47304;47.456;19.160;2024-02-14T10:38:40;7.10;;;4.20;;
61435;SDS011;47304;47.456;19.160;2024-02-14T10:41:09;9.20;;;4.80;;
61435;SDS011;47304;47.456;19.160;2024-02-14T10:43:41;7.50;;;4.20;;
61435;SDS011;47304;47.456;19.160;2024-02-14T10:46:12;8.10;;;4.10;;
61435;SDS011;47304;47.456;19.160;2024-02-14T10:48:45;8.70;;;3.60;;
61435;SDS011;47304;47.456;19.160;2024-02-14T10:51:13;7.60;;;3.90;;
61435;SDS011;47304;47.456;19.160;2024-02-14T10:53:45;7.40;;;3.60;;
61435;SDS011;47304;47.456;19.160;2024-02-14T10:56:17;6.80;;;4.10;;
61435;SDS011;47304;47.456;19.160;2024-02-14T10:58:45;7.40;;;3.70;;
61435;SDS011;47304;47.456;19.160;2024-02-14T11:01:14;7.10;;;3.80;;
61435;SDS011;47304;47.456;19.160;2024-02-14T11:06:14;7.90;;;3.10;;
61435;SDS011;47304;47.456;19.160;2024-02-14T11:08:53;4.80;;;2.60;;
61435;SDS011;47304;47.456;19.160;2024-02-14T11:11:23;5.10;;;2.50;;
61435;SDS011;47304;47.456;19.160;2024-02-14T11:13:54;5.10;;;2.60;;
61435;SDS011;47304;47.456;19.160;2024-02-14T11:16:30;5.60;;;2.50;;
61435;SDS011;47304;47.456;19.160;2024-02-14T11:19:08;6.00;;;2.80;;
61435;SDS011;47304;47.456;19.160;2024-02-14T11:21:37;4.10;;;2.60;;
61435;SDS011;47304;47.456;19.160;2024-02-14T11:24:09;5.80;;;2.70;;
61435;SDS011;47304;47.456;19.160;2024-02-14T11:26:39;6.60;;;3.20;;
61435;SDS011;47304;47.456;19.160;2024-02-14T11:29:14;5.30;;;2.60;;
61435;SDS011;47304;47.456;19.160;2024-02-14T11:31:43;5.70;;;3.00;;
61435;SDS011;47304;47.456;19.160;2024-02-14T11:34:12;6.10;;;3.00;;
61435;SDS011;47304;47.456;19.160;2024-02-14T11:36:40;7.00;;;3.20;;
61435;SDS011;47304;47.456;19.160;2024-02-14T11:39:11;6.80;;;3.80;;
61435;SDS011;47304;47.456;19.160;2024-02-14T11:41:39;7.00;;;3.60;;
61435;SDS011;47304;47.456;19.160;2024-02-14T11:44:08;6.20;;;3.10;;
61435;SDS011;47304;47.456;19.160;2024-02-14T11:46:36;7.40;;;3.30;;
61435;SDS011;47304;47.456;19.160;2024-02-14T11:49:04;8.10;;;3.50;;
61435;SDS011;47304;47.456;19.160;2024-02-14T11:51:33;6.90;;;3.30;;
61435;SDS011;47304;47.456;19.160;2024-02-14T11:54:02;7.10;;;3.40;;
61435;SDS011;47304;47.456;19.160;2024-02-14T11:56:31;6.90;;;3.10;;
61435;SDS011;47304;47.456;19.160;2024-02-14T11:58:59;6.70;;;3.50;;
61435;SDS011;47304;47.456;19.160;2024-02-14T12:01:28;6.80;;;3.10;;
61435;SDS011;47304;47.456;19.160;2024-02-14T12:03:56;6.80;;;3.20;;
61435;SDS011;47304;47.456;19.160;2024-02-14T12:06:25;8.10;;;3.50;;
61435;SDS011;47304;47.456;19.160;2024-02-14T12:08:53;7.40;;;3.50;;
61435;SDS011;47304;47.456;19.160;2024-02-14T12:11:22;7.60;;;3.80;;
61435;SDS011;47304;47.456;19.160;2024-02-14T12:13:51;8.80;;;3.30;;
61435;SDS011;47304;47.456;19.160;2024-02-14T12:16:20;6.60;;;3.20;;
61435;SDS011;47304;47.456;19.160;2024-02-14T12:18:49;7.00;;;3.20;;
61435;SDS011;47304;47.456;19.160;2024-02-14T12:21:26;6.50;;;3.20;;
61435;SDS011;47304;47.456;19.160;2024-02-14T12:23:59;7.20;;;3.30;;
61435;SDS011;47304;47.456;19.160;2024-02-14T12:26:27;7.40;;;3.10;;
61435;SDS011;47304;47.456;19.160;2024-02-14T12:28:56;6.00;;;2.70;;
61435;SDS011;47304;47.456;19.160;2024-02-14T12:31:24;6.10;;;2.60;;
61435;SDS011;47304;47.456;19.160;2024-02-14T12:33:52;6.30;;;2.60;;
61435;SDS011;47304;47.456;19.160;2024-02-14T12:36:21;7.10;;;3.60;;
61435;SDS011;47304;47.456;19.160;2024-02-14T12:38:49;5.90;;;2.70;;
61435;SDS011;47304;47.456;19.160;2024-02-14T12:41:17;6.90;;;3.00;;
61435;SDS011;47304;47.456;19.160;2024-02-14T12:43:45;6.30;;;2.90;;
61435;SDS011;47304;47.456;19.160;2024-02-14T12:46:14;6.00;;;2.50;;
61435;SDS011;47304;47.456;19.160;2024-02-14T12:48:42;7.50;;;2.60;;
61435;SDS011;47304;47.456;19.160;2024-02-14T12:51:10;5.00;;;2.40;;
61435;SDS011;47304;47.456;19.160;2024-02-14T12:53:38;6.50;;;2.60;;
61435;SDS011;47304;47.456;19.160;2024-02-14T12:56:07;5.20;;;2.50;;
61435;SDS011;47304;47.456;19.160;2024-02-14T12:58:35;5.20;;;2.60;;
61435;SDS011;47304;47.456;19.160;2024-02-14T13:01:04;8.00;;;3.10;;
61435;SDS011;47304;47.456;19.160;2024-02-14T13:03:32;5.60;;;2.60;;
61435;SDS011;47304;47.456;19.160;2024-02-14T13:06:00;7.10;;;2.70;;
61435;SDS011;47304;47.456;19.160;2024-02-14T13:08:28;5.10;;;2.20;;
61435;SDS011;47304;47.456;19.160;2024-02-14T13:10:57;6.00;;;2.80;;
61435;SDS011;47304;47.456;19.160;2024-02-14T13:13:25;6.70;;;2.60;;
61435;SDS011;47304;47.456;19.160;2024-02-14T13:15:54;7.00;;;2.90;;
61435;SDS011;47304;47.456;19.160;2024-02-14T13:18:22;7.70;;;3.00;;
61435;SDS011;47304;47.456;19.160;2024-02-14T13:20:50;6.40;;;2.70;;
61435;SDS011;47304;47.456;19.160;2024-02-14T13:23:19;6.90;;;2.80;;
61435;SDS011;47304;47.456;19.160;2024-02-14T13:25:47;8.00;;;3.00;;
61435;SDS011;47304;47.456;19.160;2024-02-14T13:28:15;6.80;;;3.10;;
61435;SDS011;47304;47.456;19.160;2024-02-14T13:30:43;7.00;;;2.90;;
61435;SDS011;47304;47.456;19.160;2024-02-14T13:33:12;7.00;;;3.10;;
61435;SDS011;47304;47.456;19.160;2024-02-14T13:35:41;7.30;;;2.70;;
61435;SDS011;47304;47.456;19.160;2024-02-14T13:38:09;7.30;;;3.00;;
61435;SDS011;47304;47.456;19.160;2024-02-14T13:40:37;7.10;;;3.30;;
61435;SDS011;47304;47.456;19.160;2024-02-14T13:43:06;6.70;;;3.10;;
61435;SDS011;47304;47.456;19.160;2024-02-14T13:45:40;9.00;;;3.80;;
61435;SDS011;47304;47.456;19.160;2024-02-14T13:48:09;7.30;;;3.50;;
61435;SDS011;47304;47.456;19.160;2024-02-14T13:50:38;8.60;;;3.60;;
61435;SDS011;47304;47.456;19.160;2024-02-14T13:53:06;7.40;;;3.50;;
61435;SDS011;47304;47.456;19.160;2024-02-14T13:55:35;7.20;;;3.80;;
61435;SDS011;47304;47.456;19.160;2024-02-14T13:58:03;8.30;;;3.70;;
61435;SDS011;47304;47.456;19.160;2024-02-14T14:00:32;8.80;;;3.30;;
61435;SDS011;47304;47.456;19.160;2024-02-14T14:03:00;8.70;;;4.00;;
61435;SDS011;47304;47.456;19.160;2024-02-14T14:05:28;8.90;;;3.50;;
61435;SDS011;47304;47.456;19.160;2024-02-14T14:07:56;8.00;;;3.60;;
61435;SDS011;47304;47.456;19.160;2024-02-14T14:10:24;9.00;;;4.00;;
61435;SDS011;47304;47.456;19.160;2024-02-14T14:12:53;6.50;;;2.90;;
61435;SDS011;47304;47.456;19.160;2024-02-14T14:15:21;8.90;;;3.70;;
61435;SDS011;47304;47.456;19.160;2024-02-14T14:17:49;8.30;;;3.30;;
61435;SDS011;47304;47.456;19.160;2024-02-14T14:20:17;8.70;;;3.60;;
61435;SDS011;47304;47.456;19.160;2024-02-14T14:22:55;7.60;;;3.20;;
61435;SDS011;47304;47.456;19.160;2024-02-14T14:25:23;9.10;;;3.80;;
61435;SDS011;47304;47.456;19.160;2024-02-14T14:27:52;9.40;;;4.10;;
61435;SDS011;47304;47.456;19.160;2024-02-14T14:30:20;9.80;;;3.90;;
61435;SDS011;47304;47.456;19.160;2024-02-14T14:32:48;12.40;;;4.60;;
61435;SDS011;47304;47.456;19.160;2024-02-14T14:35:17;8.10;;;4.00;;
61435;SDS011;47304;47.456;19.160;2024-02-14T14:37:45;8.30;;;4.10;;